sensor_id;sensor_type;location;lat;lon;timestamp;pressure;altitude;pressure_sealevel;temperature;humidity
37132;BME280;23035;50.032;21.978;2022-09-09T00:00:26;67039.94;;;17.72;100.00
37132;BME280;23035;50.032;21.978;2022-09-09T00:05:59;67055.50;;;17.84;100.00
37132;BME280;23035;50.032;21.978;2022-09-09T00:11:09;67058.19;;;17.87;100.00
37132;BME280;23035;50.032;21.978;2022-09-09T00:16:19;67144.13;;;18.73;100.00
37132;BME280;23035;50.032;21.978;2022-09-09T00:21:30;67116.47;;;18.42;100.00
37132;BME280;23035;50.032;21.978;2022-09-09T00:26:40;67085.78;;;18.15;100.00
37132;BME280;23035;50.032;21.978;2022-09-09T00:31:45;67134.88;;;18.61;100.00
37132;BME280;23035;50.032;21.978;2022-09-09T00:36:52;67129.47;;;18.56;100.00
37132;BME280;23035;50.032;21.978;2022-09-09T00:42:08;67120.91;;;18.51;100.00
37132;BME280;23035;50.032;21.978;2022-09-09T00:47:38;67077.22;;;18.10;100.00
37132;BME280;23035;50.032;21.978;2022-09-09T00:52:49;67088.94;;;18.16;100.00
37132;BME280;23035;50.032;21.978;2022-09-09T00:57:54;67101.34;;;18.27;100.00
37132;BME280;23035;50.032;21.978;2022-09-09T01:03:21;67054.56;;;17.88;100.00
37132;BME280;23035;50.032;21.978;2022-09-09T01:08:43;67088.94;;;18.16;100.00
37132;BME280;23035;50.032;21.978;2022-09-09T01:13:58;67097.66;;;18.26;100.00
37132;BME280;23035;50.032;21.978;2022-09-09T01:19:10;67123.00;;;18.50;100.00
37132;BME280;23035;50.032;21.978;2022-09-09T01:24:27;67099.78;;;18.28;100.00
37132;BME280;23035;50.032;21.978;2022-09-09T01:29:42;67113.28;;;18.41;100.00
37132;BME280;23035;50.032;21.978;2022-09-09T01:34:46;67110.53;;;18.36;100.00
37132;BME280;23035;50.032;21.978;2022-09-09T01:39:50;67096.56;;;18.25;100.00
37132;BME280;23035;50.032;21.978;2022-09-09T01:44:56;67085.25;;;18.15;100.00
37132;BME280;23035;50.032;21.978;2022-09-09T01:50:01;67157.13;;;18.87;100.00
37132;BME280;23035;50.032;21.978;2022-09-09T01:55:07;67105.81;;;18.37;100.00
37132;BME280;23035;50.032;21.978;2022-09-09T02:00:16;67094.47;;;18.26;100.00
37132;BME280;23035;50.032;21.978;2022-09-09T02:05:32;67148.38;;;18.74;100.00
37132;BME280;23035;50.032;21.978;2022-09-09T02:10:47;67167.34;;;18.95;100.00
37132;BME280;23035;50.032;21.978;2022-09-09T02:16:12;67168.41;;;18.96;100.00
37132;BME280;23035;50.032;21.978;2022-09-09T02:21:17;67148.44;;;18.77;100.00
37132;BME280;23035;50.032;21.978;2022-09-09T02:26:21;67126.97;;;18.61;100.00
37132;BME280;23035;50.032;21.978;2022-09-09T02:36:23;67068.59;;;18.01;100.00
37132;BME280;23035;50.032;21.978;2022-09-09T02:41:32;67112.28;;;18.43;100.00
37132;BME280;23035;50.032;21.978;2022-09-09T02:47:05;67096.09;;;18.27;100.00
37132;BME280;23035;50.032;21.978;2022-09-09T02:52:14;67139.53;;;18.58;100.00
37132;BME280;23035;50.032;21.978;2022-09-09T02:57:22;67116.19;;;18.51;100.00
37132;BME280;23035;50.032;21.978;2022-09-09T03:02:26;67145.69;;;18.72;100.00
37132;BME280;23035;50.032;21.978;2022-09-09T03:07:39;67083.09;;;18.13;100.00
37132;BME280;23035;50.032;21.978;2022-09-09T03:12:44;67050.72;;;17.82;100.00
37132;BME280;23035;50.032;21.978;2022-09-09T03:17:49;66994.03;;;17.26;100.00
37132;BME280;23035;50.032;21.978;2022-09-09T03:22:56;67037.31;;;17.72;100.00
37132;BME280;23035;50.032;21.978;2022-09-09T03:28:00;67042.69;;;17.77;100.00
37132;BME280;23035;50.032;21.978;2022-09-09T03:33:04;67043.19;;;17.75;100.00
37132;BME280;23035;50.032;21.978;2022-09-09T03:38:10;66959.59;;;16.96;100.00
37132;BME280;23035;50.032;21.978;2022-09-09T03:43:14;66940.19;;;16.78;100.00
37132;BME280;23035;50.032;21.978;2022-09-09T03:48:19;66999.41;;;17.31;100.00
37132;BME280;23035;50.032;21.978;2022-09-09T03:53:25;67023.19;;;17.56;100.00
37132;BME280;23035;50.032;21.978;2022-09-09T03:58:29;67037.31;;;17.72;100.00
37132;BME280;23035;50.032;21.978;2022-09-09T04:03:39;66976.44;;;17.17;100.00
37132;BME280;23035;50.032;21.978;2022-09-09T04:08:45;67001.16;;;17.38;100.00
37132;BME280;23035;50.032;21.978;2022-09-09T04:13:51;67021.13;;;17.57;100.00
37132;BME280;23035;50.032;21.978;2022-09-09T04:18:55;67031.84;;;17.64;100.00
37132;BME280;23035;50.032;21.978;2022-09-09T04:24:02;67046.94;;;17.78;100.00
37132;BME280;23035;50.032;21.978;2022-09-09T04:29:05;67053.34;;;17.82;100.00
37132;BME280;23035;50.032;21.978;2022-09-09T04:34:10;67049.31;;;17.88;100.00
37132;BME280;23035;50.032;21.978;2022-09-09T04:39:17;67041.69;;;17.78;100.00
37132;BME280;23035;50.032;21.978;2022-09-09T04:44:23;67055.19;;;17.91;100.00
37132;BME280;23035;50.032;21.978;2022-09-09T04:49:28;67115.44;;;18.43;100.00
37132;BME280;23035;50.032;21.978;2022-09-09T04:54:35;67036.31;;;17.73;100.00
37132;BME280;23035;50.032;21.978;2022-09-09T04:59:40;67039.94;;;17.72;100.00
37132;BME280;23035;50.032;21.978;2022-09-09T05:04:44;67050.25;;;17.84;100.00
37132;BME280;23035;50.032;21.978;2022-09-09T05:09:50;67072.31;;;18.02;100.00
37132;BME280;23035;50.032;21.978;2022-09-09T05:14:54;67054.03;;;17.88;100.00
37132;BME280;23035;50.032;21.978;2022-09-09T05:19:58;67046.50;;;17.81;100.00
37132;BME280;23035;50.032;21.978;2022-09-09T05:25:04;67037.31;;;17.72;100.00
37132;BME280;23035;50.032;21.978;2022-09-09T05:30:09;66957.03;;;16.99;100.00
37132;BME280;23035;50.032;21.978;2022-09-09T05:35:13;67027.53;;;17.60;100.00
37132;BME280;23035;50.032;21.978;2022-09-09T05:40:19;66940.78;;;16.81;100.00
37132;BME280;23035;50.032;21.978;2022-09-09T05:45:24;67000.63;;;17.37;100.00
37132;BME280;23035;50.032;21.978;2022-09-09T05:50:28;66915.94;;;16.55;100.00
37132;BME280;23035;50.032;21.978;2022-09-09T05:55:34;67032.38;;;17.65;100.00
37132;BME280;23035;50.032;21.978;2022-09-09T06:00:39;67119.31;;;18.49;100.00
37132;BME280;23035;50.032;21.978;2022-09-09T06:05:43;67095.56;;;18.27;100.00
37132;BME280;23035;50.032;21.978;2022-09-09T06:10:49;67088.06;;;18.22;100.00
37132;BME280;23035;50.032;21.978;2022-09-09T06:15:53;67046.06;;;17.85;100.00
37132;BME280;23035;50.032;21.978;2022-09-09T06:21:01;67062.59;;;17.93;100.00
37132;BME280;23035;50.032;21.978;2022-09-09T06:26:11;67045.81;;;17.75;100.00
37132;BME280;23035;50.032;21.978;2022-09-09T06:31:17;67045.38;;;17.80;100.00
37132;BME280;23035;50.032;21.978;2022-09-09T06:36:34;67091.56;;;18.16;100.00
37132;BME280;23035;50.032;21.978;2022-09-09T06:41:42;67122.00;;;18.52;100.00
37132;BME280;23035;50.032;21.978;2022-09-09T06:47:04;67046.56;;;17.83;100.00
37132;BME280;23035;50.032;21.978;2022-09-09T06:52:09;67108.09;;;18.44;100.00
37132;BME280;23035;50.032;21.978;2022-09-09T06:57:15;67091.72;;;18.21;100.00
37132;BME280;23035;50.032;21.978;2022-09-09T07:02:41;67092.31;;;18.24;100.00
37132;BME280;23035;50.032;21.978;2022-09-09T07:07:47;66977.50;;;17.18;100.00
37132;BME280;23035;50.032;21.978;2022-09-09T07:12:55;67075.06;;;18.08;100.00
37132;BME280;23035;50.032;21.978;2022-09-09T07:18:01;67076.66;;;18.09;100.00
37132;BME280;23035;50.032;21.978;2022-09-09T07:23:06;67199.25;;;19.27;100.00
37132;BME280;23035;50.032;21.978;2022-09-09T07:28:11;67176.44;;;19.01;100.00
37132;BME280;23035;50.032;21.978;2022-09-09T07:33:15;67178.66;;;19.05;100.00
37132;BME280;23035;50.032;21.978;2022-09-09T07:38:19;67201.28;;;19.24;100.00
37132;BME280;23035;50.032;21.978;2022-09-09T07:43:27;67282.34;;;20.03;100.00
37132;BME280;23035;50.032;21.978;2022-09-09T07:48:30;67181.44;;;19.10;100.00
37132;BME280;23035;50.032;21.978;2022-09-09T07:53:35;67166.25;;;18.94;100.00
37132;BME280;23035;50.032;21.978;2022-09-09T07:58:44;67259.66;;;19.82;100.00
37132;BME280;23035;50.032;21.978;2022-09-09T08:03:53;67309.91;;;20.29;100.00
37132;BME280;23035;50.032;21.978;2022-09-09T08:08:58;67323.41;;;20.42;100.00
37132;BME280;23035;50.032;21.978;2022-09-09T08:14:05;67349.38;;;20.66;100.00
37132;BME280;23035;50.032;21.978;2022-09-09T08:19:10;67293.16;;;20.13;100.00
37132;BME280;23035;50.032;21.978;2022-09-09T08:24:14;67341.31;;;20.61;100.00
37132;BME280;23035;50.032;21.978;2022-09-09T08:29:24;67296.41;;;20.16;100.00
37132;BME280;23035;50.032;21.978;2022-09-09T08:34:28;67322.88;;;20.41;100.00
37132;BME280;23035;50.032;21.978;2022-09-09T08:39:37;67408.25;;;21.22;100.00
37132;BME280;23035;50.032;21.978;2022-09-09T08:45:00;67346.66;;;20.63;100.00
37132;BME280;23035;50.032;21.978;2022-09-09T08:50:16;67366.03;;;20.79;100.00
37132;BME280;23035;50.032;21.978;2022-09-09T08:55:26;67422.75;;;21.30;100.00
37132;BME280;23035;50.032;21.978;2022-09-09T09:00:42;67301.19;;;20.18;100.00
37132;BME280;23035;50.032;21.978;2022-09-09T09:05:54;67473.81;;;21.88;100.00
37132;BME280;23035;50.032;21.978;2022-09-09T09:11:02;67491.53;;;22.00;100.00
37132;BME280;23035;50.032;21.978;2022-09-09T09:16:17;67403.41;;;21.17;100.00
37132;BME280;23035;50.032;21.978;2022-09-09T09:21:35;67423.53;;;21.41;100.00
37132;BME280;23035;50.032;21.978;2022-09-09T09:26:43;67566.16;;;22.68;100.00
37132;BME280;23035;50.032;21.978;2022-09-09T09:31:51;67373.69;;;20.89;100.00
37132;BME280;23035;50.032;21.978;2022-09-09T09:36:59;67480.31;;;21.94;100.00
37132;BME280;23035;50.032;21.978;2022-09-09T09:42:10;67474.78;;;21.84;100.00
37132;BME280;23035;50.032;21.978;2022-09-09T09:47:22;67501.31;;;22.09;100.00
37132;BME280;23035;50.032;21.978;2022-09-09T09:52:53;67568.94;;;22.73;100.00
37132;BME280;23035;50.032;21.978;2022-09-09T09:58:03;67551.13;;;22.58;100.00
37132;BME280;23035;50.032;21.978;2022-09-09T10:03:22;67549.31;;;22.49;100.00
37132;BME280;23035;50.032;21.978;2022-09-09T10:08:28;67493.66;;;21.99;100.00
37132;BME280;23035;50.032;21.978;2022-09-09T10:13:39;67554.97;;;22.65;100.00
37132;BME280;23035;50.032;21.978;2022-09-09T10:18:56;67534.84;;;22.41;100.00
37132;BME280;23035;50.032;21.978;2022-09-09T10:24:24;67681.59;;;23.81;95.57
37132;BME280;23035;50.032;21.978;2022-09-09T10:29:43;67651.75;;;23.51;94.33
37132;BME280;23035;50.032;21.978;2022-09-09T10:34:56;67522.53;;;22.34;100.00
37132;BME280;23035;50.032;21.978;2022-09-09T10:40:08;67469.84;;;21.77;100.00
37132;BME280;23035;50.032;21.978;2022-09-09T10:50:50;67455.31;;;21.66;100.00
37132;BME280;23035;50.032;21.978;2022-09-09T10:56:07;67579.22;;;22.82;100.00
37132;BME280;23035;50.032;21.978;2022-09-09T11:01:16;67657.22;;;23.58;97.51
37132;BME280;23035;50.032;21.978;2022-09-09T11:06:29;67519.16;;;22.26;100.00
37132;BME280;23035;50.032;21.978;2022-09-09T11:11:41;67573.69;;;22.72;99.76
37132;BME280;23035;50.032;21.978;2022-09-09T11:16:50;67604.66;;;23.06;98.18
37132;BME280;23035;50.032;21.978;2022-09-09T11:21:59;67568.44;;;22.75;100.00
37132;BME280;23035;50.032;21.978;2022-09-09T11:27:10;67678.78;;;23.73;94.23
37132;BME280;23035;50.032;21.978;2022-09-09T11:32:29;67553.28;;;22.60;100.00
37132;BME280;23035;50.032;21.978;2022-09-09T11:37:53;67528.94;;;22.38;100.00
37132;BME280;23035;50.032;21.978;2022-09-09T11:43:04;67534.38;;;22.43;100.00
37132;BME280;23035;50.032;21.978;2022-09-09T11:48:22;67672.94;;;23.73;94.17
37132;BME280;23035;50.032;21.978;2022-09-09T11:53:29;67606.81;;;23.08;97.31
37132;BME280;23035;50.032;21.978;2022-09-09T11:58:35;67591.13;;;22.94;99.94
37132;BME280;23035;50.032;21.978;2022-09-09T12:03:42;67569.53;;;22.76;99.74
37132;BME280;23035;50.032;21.978;2022-09-09T12:08:51;67560.16;;;22.59;100.00
37132;BME280;23035;50.032;21.978;2022-09-09T12:13:59;67774.25;;;24.68;88.49
37132;BME280;23035;50.032;21.978;2022-09-09T12:19:13;67831.19;;;25.24;85.76
37132;BME280;23035;50.032;21.978;2022-09-09T12:24:21;67888.56;;;25.73;79.59
37132;BME280;23035;50.032;21.978;2022-09-09T12:29:32;68142.63;;;28.16;68.96
37132;BME280;23035;50.032;21.978;2022-09-09T12:34:41;68068.09;;;27.39;69.68
37132;BME280;23035;50.032;21.978;2022-09-09T12:39:51;68163.78;;;28.34;67.88
37132;BME280;23035;50.032;21.978;2022-09-09T12:44:58;68398.03;;;30.55;58.10
37132;BME280;23035;50.032;21.978;2022-09-09T12:50:04;68528.63;;;31.78;49.04
37132;BME280;23035;50.032;21.978;2022-09-09T12:55:18;68486.19;;;31.38;48.11
37132;BME280;23035;50.032;21.978;2022-09-09T13:00:25;68324.03;;;29.81;51.69
37132;BME280;23035;50.032;21.978;2022-09-09T13:05:37;68251.78;;;29.16;54.83
37132;BME280;23035;50.032;21.978;2022-09-09T13:10:46;68180.66;;;28.52;54.31
37132;BME280;23035;50.032;21.978;2022-09-09T13:15:56;68149.63;;;28.20;58.30
37132;BME280;23035;50.032;21.978;2022-09-09T13:21:02;67998.75;;;26.81;65.66
37132;BME280;23035;50.032;21.978;2022-09-09T13:26:19;68005.78;;;26.85;64.55
37132;BME280;23035;50.032;21.978;2022-09-09T13:31:28;67936.88;;;26.21;66.92
37132;BME280;23035;50.032;21.978;2022-09-09T13:36:34;67804.41;;;24.89;72.46
37132;BME280;23035;50.032;21.978;2022-09-09T13:41:44;67866.88;;;25.53;71.13
37132;BME280;23035;50.032;21.978;2022-09-09T13:47:00;67989.47;;;26.68;65.90
37132;BME280;23035;50.032;21.978;2022-09-09T13:52:13;68020.91;;;26.97;64.11
37132;BME280;23035;50.032;21.978;2022-09-09T13:57:20;68153.38;;;28.21;59.86
37132;BME280;23035;50.032;21.978;2022-09-09T14:02:24;68017.16;;;26.96;62.62
37132;BME280;23035;50.032;21.978;2022-09-09T14:07:28;67908.72;;;25.97;68.21
37132;BME280;23035;50.032;21.978;2022-09-09T14:12:33;68026.91;;;27.03;65.72
37132;BME280;23035;50.032;21.978;2022-09-09T14:17:38;68191.97;;;28.57;58.36
37132;BME280;23035;50.032;21.978;2022-09-09T14:22:42;68360.47;;;30.18;52.60
37132;BME280;23035;50.032;21.978;2022-09-09T14:27:48;68369.19;;;30.26;51.41
37132;BME280;23035;50.032;21.978;2022-09-09T14:32:53;68376.88;;;30.38;51.47
37132;BME280;23035;50.032;21.978;2022-09-09T14:37:57;68267.97;;;29.26;54.71
37132;BME280;23035;50.032;21.978;2022-09-09T14:43:03;68250.59;;;29.10;54.43
37132;BME280;23035;50.032;21.978;2022-09-09T14:48:08;68261.59;;;29.28;53.85
37132;BME280;23035;50.032;21.978;2022-09-09T14:53:11;68234.97;;;29.03;55.38
37132;BME280;23035;50.032;21.978;2022-09-09T14:58:16;68181.69;;;28.50;56.76
37132;BME280;23035;50.032;21.978;2022-09-09T15:03:20;68182.72;;;28.49;56.54
37132;BME280;23035;50.032;21.978;2022-09-09T15:08:25;68045.84;;;27.18;59.80
37132;BME280;23035;50.032;21.978;2022-09-09T15:13:31;67939.56;;;26.23;64.42
37132;BME280;23035;50.032;21.978;2022-09-09T15:18:35;67990.53;;;26.69;64.82
37132;BME280;23035;50.032;21.978;2022-09-09T15:23:42;68044.81;;;27.20;62.35
37132;BME280;23035;50.032;21.978;2022-09-09T15:28:48;68009.63;;;26.92;64.03
37132;BME280;23035;50.032;21.978;2022-09-09T15:33:54;68014.41;;;26.91;66.64
37132;BME280;23035;50.032;21.978;2022-09-09T15:39:04;67947.66;;;26.28;72.96
37132;BME280;23035;50.032;21.978;2022-09-09T15:44:10;67855.47;;;25.42;77.80
37132;BME280;23035;50.032;21.978;2022-09-09T15:49:16;67742.22;;;24.36;83.13
37132;BME280;23035;50.032;21.978;2022-09-09T15:54:22;67615.59;;;23.22;91.74
37132;BME280;23035;50.032;21.978;2022-09-09T15:59:28;67553.72;;;22.56;98.54
37132;BME280;23035;50.032;21.978;2022-09-09T16:04:33;67433.09;;;21.42;100.00
37132;BME280;23035;50.032;21.978;2022-09-09T16:09:37;67376.38;;;20.91;100.00
37132;BME280;23035;50.032;21.978;2022-09-09T16:14:42;67349.38;;;20.66;100.00
37132;BME280;23035;50.032;21.978;2022-09-09T16:19:47;67285.59;;;20.06;100.00
37132;BME280;23035;50.032;21.978;2022-09-09T16:24:51;67255.81;;;19.75;100.00
37132;BME280;23035;50.032;21.978;2022-09-09T16:29:56;67270.94;;;19.90;100.00
37132;BME280;23035;50.032;21.978;2022-09-09T16:35:00;67194.31;;;19.20;100.00
37132;BME280;23035;50.032;21.978;2022-09-09T16:40:06;67224.63;;;19.51;100.00
37132;BME280;23035;50.032;21.978;2022-09-09T16:45:12;67178.66;;;19.05;100.00
37132;BME280;23035;50.032;21.978;2022-09-09T16:50:16;67207.75;;;19.30;100.00
37132;BME280;23035;50.032;21.978;2022-09-09T16:55:20;67127.91;;;18.57;100.00
37132;BME280;23035;50.032;21.978;2022-09-09T17:00:26;67114.44;;;18.45;100.00
37132;BME280;23035;50.032;21.978;2022-09-09T17:05:30;67099.41;;;18.33;100.00
37132;BME280;23035;50.032;21.978;2022-09-09T17:10:40;67131.09;;;18.58;100.00
37132;BME280;23035;50.032;21.978;2022-09-09T17:15:46;67150.00;;;18.76;100.00
37132;BME280;23035;50.032;21.978;2022-09-09T17:20:50;67092.31;;;18.24;100.00
37132;BME280;23035;50.032;21.978;2022-09-09T17:25:57;67028.66;;;17.64;100.00
37132;BME280;23035;50.032;21.978;2022-09-09T17:31:03;66999.06;;;17.38;100.00
37132;BME280;23035;50.032;21.978;2022-09-09T17:36:10;67009.25;;;17.45;100.00
37132;BME280;23035;50.032;21.978;2022-09-09T17:41:15;67022.19;;;17.58;100.00
37132;BME280;23035;50.032;21.978;2022-09-09T17:46:22;66973.69;;;17.12;100.00
37132;BME280;23035;50.032;21.978;2022-09-09T17:51:28;66992.47;;;17.27;100.00
37132;BME280;23035;50.032;21.978;2022-09-09T17:56:34;66976.38;;;17.14;100.00
37132;BME280;23035;50.032;21.978;2022-09-09T18:01:41;67010.94;;;17.49;100.00
37132;BME280;23035;50.032;21.978;2022-09-09T18:06:48;66950.59;;;16.92;100.00
37132;BME280;23035;50.032;21.978;2022-09-09T18:11:54;67057.81;;;17.91;100.00
37132;BME280;23035;50.032;21.978;2022-09-09T18:17:02;67002.25;;;17.39;100.00
37132;BME280;23035;50.032;21.978;2022-09-09T18:22:06;67073.97;;;18.06;100.00
37132;BME280;23035;50.032;21.978;2022-09-09T18:27:11;67053.56;;;17.90;100.00
37132;BME280;23035;50.032;21.978;2022-09-09T18:32:16;67085.94;;;18.20;100.00
37132;BME280;23035;50.032;21.978;2022-09-09T18:37:21;67070.28;;;18.05;100.00
37132;BME280;23035;50.032;21.978;2022-09-09T18:42:25;67071.81;;;18.04;100.00
37132;BME280;23035;50.032;21.978;2022-09-09T18:47:30;67094.47;;;18.26;100.00
37132;BME280;23035;50.032;21.978;2022-09-09T18:52:34;67014.78;;;17.56;100.00
37132;BME280;23035;50.032;21.978;2022-09-09T18:57:38;67001.16;;;17.38;100.00
37132;BME280;23035;50.032;21.978;2022-09-09T19:02:47;66979.06;;;17.17;100.00
37132;BME280;23035;50.032;21.978;2022-09-09T19:07:54;67007.03;;;17.41;100.00
37132;BME280;23035;50.032;21.978;2022-09-09T19:12:58;67030.22;;;17.63;100.00
37132;BME280;23035;50.032;21.978;2022-09-09T19:18:04;66966.69;;;17.05;100.00
37132;BME280;23035;50.032;21.978;2022-09-09T19:23:10;66909.06;;;16.53;100.00
37132;BME280;23035;50.032;21.978;2022-09-09T19:28:16;66928.50;;;16.72;100.00
37132;BME280;23035;50.032;21.978;2022-09-09T19:33:21;66944.66;;;16.87;100.00
37132;BME280;23035;50.032;21.978;2022-09-09T19:38:25;66927.78;;;16.66;100.00
37132;BME280;23035;50.032;21.978;2022-09-09T19:43:29;66945.66;;;16.85;100.00
37132;BME280;23035;50.032;21.978;2022-09-09T19:48:36;66971.06;;;17.12;100.00
37132;BME280;23035;50.032;21.978;2022-09-09T19:53:43;66934.72;;;16.70;100.00
37132;BME280;23035;50.032;21.978;2022-09-09T19:58:48;66917.47;;;16.54;100.00
37132;BME280;23035;50.032;21.978;2022-09-09T20:03:55;66898.84;;;16.44;100.00
37132;BME280;23035;50.032;21.978;2022-09-09T20:08:59;66908.53;;;16.53;100.00
37132;BME280;23035;50.032;21.978;2022-09-09T20:14:03;66928.41;;;16.69;100.00
37132;BME280;23035;50.032;21.978;2022-09-09T20:19:09;66895.69;;;16.43;100.00
37132;BME280;23035;50.032;21.978;2022-09-09T20:24:16;66940.19;;;16.78;100.00
37132;BME280;23035;50.032;21.978;2022-09-09T20:29:21;67006.03;;;17.42;100.00
37132;BME280;23035;50.032;21.978;2022-09-09T20:34:26;66944.59;;;16.84;100.00
37132;BME280;23035;50.032;21.978;2022-09-09T20:39:31;66960.19;;;16.99;100.00
37132;BME280;23035;50.032;21.978;2022-09-09T20:44:37;66969.84;;;17.06;100.00
37132;BME280;23035;50.032;21.978;2022-09-09T20:49:42;66975.84;;;17.14;100.00
37132;BME280;23035;50.032;21.978;2022-09-09T20:54:46;66980.00;;;17.13;100.00
37132;BME280;23035;50.032;21.978;2022-09-09T20:59:50;66927.94;;;16.71;100.00
37132;BME280;23035;50.032;21.978;2022-09-09T21:04:55;66896.13;;;16.41;100.00
37132;BME280;23035;50.032;21.978;2022-09-09T21:10:00;66924.78;;;16.71;100.00
37132;BME280;23035;50.032;21.978;2022-09-09T21:15:04;66932.72;;;16.73;100.00
37132;BME280;23035;50.032;21.978;2022-09-09T21:20:10;66946.66;;;16.84;100.00
37132;BME280;23035;50.032;21.978;2022-09-09T21:25:14;66923.63;;;16.67;100.00
37132;BME280;23035;50.032;21.978;2022-09-09T21:30:18;66947.88;;;16.90;100.00
37132;BME280;23035;50.032;21.978;2022-09-09T21:35:36;66973.06;;;17.09;100.00
37132;BME280;23035;50.032;21.978;2022-09-09T21:40:41;66987.69;;;17.25;100.00
37132;BME280;23035;50.032;21.978;2022-09-09T21:45:46;66951.97;;;16.86;100.00
37132;BME280;23035;50.032;21.978;2022-09-09T21:50:53;66940.25;;;16.80;100.00
37132;BME280;23035;50.032;21.978;2022-09-09T21:56:00;66916.53;;;16.58;100.00
37132;BME280;23035;50.032;21.978;2022-09-09T22:01:07;66938.66;;;16.79;100.00
37132;BME280;23035;50.032;21.978;2022-09-09T22:06:14;66992.00;;;17.29;100.00
37132;BME280;23035;50.032;21.978;2022-09-09T22:11:20;66938.72;;;16.81;100.00
37132;BME280;23035;50.032;21.978;2022-09-09T22:16:27;66983.94;;;17.22;100.00
37132;BME280;23035;50.032;21.978;2022-09-09T22:21:32;66959.13;;;16.98;100.00
37132;BME280;23035;50.032;21.978;2022-09-09T22:26:37;67043.78;;;17.78;100.00
37132;BME280;23035;50.032;21.978;2022-09-09T22:31:41;67054.50;;;17.86;100.00
37132;BME280;23035;50.032;21.978;2022-09-09T22:36:46;67061.09;;;17.97;100.00
37132;BME280;23035;50.032;21.978;2022-09-09T22:41:52;67023.25;;;17.59;100.00
37132;BME280;23035;50.032;21.978;2022-09-09T22:46:56;66970.44;;;17.09;100.00
37132;BME280;23035;50.032;21.978;2022-09-09T22:52:01;66974.75;;;17.13;100.00
37132;BME280;23035;50.032;21.978;2022-09-09T22:57:05;66985.06;;;17.25;100.00
37132;BME280;23035;50.032;21.978;2022-09-09T23:02:11;67020.56;;;17.56;100.00
37132;BME280;23035;50.032;21.978;2022-09-09T23:07:18;66983.94;;;17.22;100.00
37132;BME280;23035;50.032;21.978;2022-09-09T23:12:22;66955.84;;;16.92;100.00
37132;BME280;23035;50.032;21.978;2022-09-09T23:17:28;66954.75;;;16.91;100.00
37132;BME280;23035;50.032;21.978;2022-09-09T23:22:35;66967.22;;;17.06;100.00
37132;BME280;23035;50.032;21.978;2022-09-09T23:27:41;66989.25;;;17.24;100.00
37132;BME280;23035;50.032;21.978;2022-09-09T23:32:47;66910.69;;;16.55;100.00
37132;BME280;23035;50.032;21.978;2022-09-09T23:37:53;66914.91;;;16.56;100.00
37132;BME280;23035;50.032;21.978;2022-09-09T23:42:57;66807.09;;;15.52;100.00
37132;BME280;23035;50.032;21.978;2022-09-09T23:48:02;66834.81;;;15.86;100.00
37132;BME280;23035;50.032;21.978;2022-09-09T23:53:07;66883.06;;;16.24;100.00
37132;BME280;23035;50.032;21.978;2022-09-09T23:58:12;66849.75;;;15.95;100.00
